createdAt,value
2018-06-10T00:03:37.657Z,5.67
2018-06-10T00:09:32.608Z,4.7
2018-06-10T00:15:27.625Z,4.41
2018-06-10T00:21:22.587Z,4.46
2018-06-10T00:27:17.639Z,4.94
2018-06-10T00:33:12.586Z,4.42
2018-06-10T00:39:07.593Z,4.83
2018-06-10T00:45:02.653Z,5.32
2018-06-10T00:50:57.604Z,5.13
2018-06-10T00:56:52.736Z,5.1
2018-06-10T01:02:47.638Z,4.44
2018-06-10T01:08:42.656Z,4.34
2018-06-10T01:14:37.633Z,4.18
2018-06-10T01:20:32.634Z,3.83
2018-06-10T01:26:27.624Z,3.83
2018-06-10T01:32:22.714Z,3.7
2018-06-10T01:38:17.648Z,3.63
2018-06-10T01:44:12.672Z,3.92
2018-06-10T01:50:07.698Z,3.87
2018-06-10T01:56:02.711Z,3.96
2018-06-10T02:01:57.671Z,3.71
2018-06-10T02:07:52.682Z,3.92
2018-06-10T02:13:47.643Z,3.57
2018-06-10T02:19:42.649Z,3.39
2018-06-10T02:25:37.649Z,3.86
2018-06-10T02:31:32.716Z,3.72
2018-06-10T02:37:27.705Z,3.87
2018-06-10T02:43:22.722Z,4.05
2018-06-10T02:49:17.724Z,3.97
2018-06-10T02:55:13.070Z,4.26
2018-06-10T03:01:07.694Z,4.46
2018-06-10T03:07:02.684Z,4.75
2018-06-10T03:12:57.719Z,4.05
2018-06-10T03:18:52.726Z,4.53
2018-06-10T03:24:47.748Z,4.49
2018-06-10T03:30:42.701Z,4.87
2018-06-10T03:36:37.712Z,4.95
2018-06-10T03:42:32.742Z,4.45
2018-06-10T03:48:27.731Z,3.79
2018-06-10T03:54:22.717Z,4.64
2018-06-10T04:00:17.747Z,3.34
2018-06-10T04:06:12.713Z,3.17
2018-06-10T04:12:07.848Z,3.16
2018-06-10T04:18:02.751Z,3.09
2018-06-10T04:23:57.784Z,3.05
2018-06-10T04:29:52.751Z,3
2018-06-10T04:35:47.808Z,3.38
2018-06-10T04:41:42.756Z,3.2
2018-06-10T04:47:37.741Z,3.58
2018-06-10T04:53:32.808Z,3.45
2018-06-10T04:59:27.748Z,3.33
2018-06-10T05:05:22.787Z,3.29
2018-06-10T05:11:17.811Z,3.64
2018-06-10T05:17:12.780Z,4.33
2018-06-10T05:23:07.786Z,4.75
2018-06-10T05:29:02.773Z,4.32
2018-06-10T05:34:57.792Z,4.76
2018-06-10T05:40:52.796Z,3.89
2018-06-10T05:46:47.764Z,4.22
2018-06-10T05:52:42.834Z,3.96
2018-06-10T05:58:37.849Z,4.66
2018-06-10T06:04:32.843Z,4
2018-06-10T06:10:27.807Z,3.91
2018-06-10T06:16:22.818Z,3.44
2018-06-10T06:22:17.843Z,4.26
2018-06-10T06:28:12.873Z,4.26
2018-06-10T06:34:07.831Z,4.42
2018-06-10T06:40:02.926Z,4.31
2018-06-10T06:45:57.870Z,3.33
2018-06-10T06:51:52.804Z,4.35
2018-06-10T06:57:47.848Z,6.38
2018-06-10T07:03:42.861Z,3.91
2018-06-10T07:09:37.832Z,4.9
2018-06-10T07:15:32.892Z,5.27
2018-06-10T07:21:27.922Z,4.71
2018-06-10T07:27:22.867Z,4.77
2018-06-10T07:33:17.845Z,4.98
2018-06-10T07:39:12.833Z,5.43
2018-06-10T07:45:07.861Z,6.07
2018-06-10T07:51:02.870Z,7.31
2018-06-10T07:56:57.861Z,6.84
2018-06-10T08:02:52.882Z,6.63
2018-06-10T08:08:47.852Z,4.17
2018-06-10T08:14:42.859Z,3.65
2018-06-10T08:20:37.897Z,2.78
2018-06-10T08:26:32.961Z,3.48
2018-06-10T08:32:27.919Z,2.63
2018-06-10T08:38:29.958Z,2.63
2018-06-10T08:45:35.099Z,2.46
2018-06-10T08:50:15.890Z,2.53
2018-06-10T08:56:12.883Z,2.58
2018-06-10T09:02:03.907Z,2.41
2018-06-10T09:08:00.889Z,2.59
2018-06-10T09:13:52.983Z,2.48
2018-06-10T09:19:48.902Z,2.43
2018-06-10T09:25:42.924Z,2.41
2018-06-10T09:32:46.105Z,2.25
2018-06-10T09:37:40.037Z,2.55
2018-06-10T09:43:32.996Z,2.06
2018-06-10T09:49:28.025Z,2.05
2018-06-10T09:55:33.181Z,2.05
2018-06-10T10:01:22.093Z,2.03
2018-06-10T10:07:07.944Z,1.71
2018-06-10T10:13:10.965Z,2.04
2018-06-10T10:18:57.973Z,1.99
2018-06-10T10:24:55.969Z,1.89
2018-06-10T10:30:53.961Z,2.12
2018-06-10T10:37:54.261Z,1.86
2018-06-10T10:42:37.989Z,1.63
2018-06-10T10:48:36.996Z,1.87
2018-06-10T10:54:27.958Z,1.64
2018-06-10T11:00:23.073Z,2
2018-06-10T11:06:17.962Z,1.63
2018-06-10T11:12:13.002Z,1.58
2018-06-10T11:18:08.032Z,1.58
2018-06-10T11:24:02.997Z,1.5
2018-06-10T11:29:58.015Z,1.63
2018-06-10T11:35:53.011Z,1.83
2018-06-10T11:41:48.110Z,1.52
2018-06-10T11:47:43.032Z,1.41
2018-06-10T11:53:38.034Z,1.34
2018-06-10T11:59:32.985Z,1.19
2018-06-10T12:05:28.567Z,1.61
2018-06-10T12:11:23.031Z,1.24
2018-06-10T12:17:18.009Z,1.27
2018-06-10T12:23:13.032Z,1.42
2018-06-10T12:29:08.012Z,1.12
2018-06-10T12:35:03.073Z,1.2
2018-06-10T12:40:58.100Z,1.19
2018-06-10T12:46:52.999Z,1
2018-06-10T12:52:48.090Z,1.42
2018-06-10T12:58:43.021Z,1.2
2018-06-10T13:04:38.011Z,1.51
2018-06-10T13:10:33.093Z,1.09
2018-06-10T13:16:28.074Z,1.04
2018-06-10T13:22:23.148Z,1.05
2018-06-10T13:28:18.025Z,1.25
2018-06-10T13:34:13.075Z,1.22
2018-06-10T13:40:08.111Z,1.41
2018-06-10T13:46:03.077Z,1.1
2018-06-10T13:51:58.083Z,1.27
2018-06-10T13:57:53.091Z,1.07
2018-06-10T14:03:48.065Z,0.93
2018-06-10T14:09:43.108Z,1.18
2018-06-10T14:15:38.070Z,1.23
2018-06-10T14:21:33.103Z,1.24
2018-06-10T14:27:28.134Z,1.22
2018-06-10T14:33:23.094Z,1.18
2018-06-10T14:39:18.080Z,1.43
2018-06-10T14:45:13.151Z,1.37
2018-06-10T14:51:08.100Z,1.01
2018-06-10T14:57:03.188Z,1.4
2018-06-10T15:02:58.100Z,1.29
2018-06-10T15:08:53.137Z,1.08
2018-06-10T15:56:13.148Z,1.21
2018-06-10T16:02:08.173Z,1.41
2018-06-10T16:08:03.196Z,1.3
2018-06-10T16:13:58.157Z,1.16
2018-06-10T16:19:53.182Z,1.36
2018-06-10T16:25:48.150Z,1.34
2018-06-10T16:31:43.183Z,1.25
2018-06-10T16:37:38.174Z,1.53
2018-06-10T16:43:33.176Z,1.69
2018-06-10T16:49:28.194Z,1.62
2018-06-10T16:55:23.243Z,1.42
2018-06-10T17:01:18.213Z,1.21
2018-06-10T17:07:13.188Z,1.47
2018-06-10T17:13:08.213Z,1.25
2018-06-10T17:19:03.227Z,1.26
2018-06-10T17:24:58.168Z,1.52
2018-06-10T17:30:53.194Z,1.23
2018-06-10T17:36:48.205Z,1.16
2018-06-10T17:42:43.241Z,1.68
2018-06-10T17:48:38.201Z,1.22
2018-06-10T17:54:33.193Z,1.6
2018-06-10T18:00:28.457Z,1.43
2018-06-10T18:06:23.247Z,3.03
2018-06-10T18:12:18.911Z,2.17
2018-06-10T18:18:13.237Z,3.07
2018-06-10T18:24:08.225Z,3.4
2018-06-10T18:30:03.223Z,2.47
2018-06-10T18:35:58.197Z,1.93
2018-06-10T18:41:53.303Z,2.2
2018-06-10T18:47:48.283Z,2.84
2018-06-10T18:53:43.369Z,2.27
2018-06-10T18:59:38.295Z,1.92
2018-06-10T19:05:33.259Z,2.08
2018-06-10T19:11:28.269Z,1.9
2018-06-10T19:17:23.305Z,2.02
2018-06-10T19:23:18.277Z,1.81
2018-06-10T19:29:13.282Z,2.03
2018-06-10T19:35:08.647Z,1.85
2018-06-10T19:41:03.560Z,2.02
2018-06-10T19:46:58.259Z,2.12
2018-06-10T19:52:53.358Z,1.88
2018-06-10T19:58:48.291Z,2.29
2018-06-10T20:04:43.300Z,1.87
2018-06-10T20:10:38.337Z,2.03
2018-06-10T20:16:37.349Z,2.54
2018-06-10T20:22:28.543Z,2.18
2018-06-10T20:28:23.298Z,2.29
2018-06-10T20:34:18.448Z,2.37
2018-06-10T20:40:13.349Z,2.62
2018-06-10T20:46:08.402Z,3.18
2018-06-10T20:52:03.329Z,3.47
2018-06-10T20:57:58.295Z,3.41
2018-06-10T21:03:53.311Z,3.4
2018-06-10T21:09:48.611Z,3.74
2018-06-10T21:15:43.817Z,2.85
2018-06-10T21:21:38.349Z,3.27
2018-06-10T21:27:33.398Z,3.47
2018-06-10T21:33:28.361Z,3.12
2018-06-10T21:39:23.499Z,3.44
2018-06-10T21:45:19.181Z,3.07
2018-06-10T21:51:13.365Z,2.68
2018-06-10T21:57:08.368Z,3.17
2018-06-10T22:03:03.358Z,2.57
2018-06-10T22:08:59.049Z,2.92
2018-06-10T22:14:53.372Z,2.75
2018-06-10T22:20:48.367Z,4
2018-06-10T22:26:43.367Z,5.17
2018-06-10T22:32:38.380Z,3.44
2018-06-10T22:38:33.391Z,3.17
2018-06-10T22:44:28.410Z,2.88
2018-06-10T22:50:23.387Z,3
2018-06-10T22:56:18.423Z,3.12
2018-06-10T23:02:13.377Z,2.81
2018-06-10T23:08:08.783Z,2.67
2018-06-10T23:14:03.392Z,2.9
2018-06-10T23:19:58.388Z,3.4
2018-06-10T23:25:53.415Z,3.12
2018-06-10T23:31:49.660Z,2.85
2018-06-10T23:37:43.438Z,2.69
2018-06-10T23:43:38.676Z,3.13
2018-06-10T23:49:33.428Z,3.03
2018-06-10T23:55:29.665Z,2.79
